Vancouver, Washington
Current Conditions -  °F | °C
As of 8:53 AM on Tuesday 27 Jan 2015 (Local Time) from KVUO Reporting Station
Moderate Fog Moderate Fog  
Wind Chill: 38°   Ceiling: 200
Heat Index: 42°   Visibility: 0.5mi
Dew Point: 41°   Wind: 6mph
Humidity: 96%   Direction: 120°ESE
Pressure: 30.1"   Gusts: NA
Location:  45.63°N, 122.67°W
Report Text: KVUO 271653Z AUTO 12005KT 1/2SM FG OVC002 06/05 A3010 RMK AO2 SLP194 T00560050
Loading
Personal Weather Stations






























Interactive Weather Map New forecast layout! Learn more

10-Day Weather Forecast

Advertisements
Track Severe Weather on mobile